createdAt,value
2019-04-14T00:00:44.760Z,72.82
2019-04-14T00:03:32.515Z,72.86
2019-04-14T00:06:04.843Z,72.66
2019-04-14T00:08:35.207Z,72.94
2019-04-14T00:11:06.303Z,73.62
2019-04-14T00:13:37.028Z,73.11
2019-04-14T00:16:07.405Z,72.80
2019-04-14T00:18:38.472Z,72.74
2019-04-14T00:21:10.797Z,73.16
2019-04-14T00:23:41.278Z,72.88
2019-04-14T00:26:27.426Z,72.82
2019-04-14T00:28:58.288Z,72.98
2019-04-14T00:31:28.772Z,72.60
2019-04-14T00:34:00.718Z,73.00
2019-04-14T00:36:30.482Z,73.07
2019-04-14T00:39:00.922Z,71.93
2019-04-14T00:41:39.479Z,71.93
2019-04-14T00:44:05.679Z,72.78
2019-04-14T00:46:39.456Z,73.12
2019-04-14T00:49:09.360Z,73.36
2019-04-14T00:51:40.604Z,73.42
2019-04-14T00:54:11.001Z,73.15
2019-04-14T00:56:41.154Z,73.11
2019-04-14T00:59:11.410Z,72.80
2019-04-14T01:01:41.628Z,73.17
2019-04-14T01:04:12.221Z,73.17
2019-04-14T01:06:42.607Z,73.38
2019-04-14T01:09:15.140Z,73.65
2019-04-14T01:11:46.525Z,73.69
2019-04-14T01:14:16.942Z,73.48
2019-04-14T01:16:47.359Z,73.64
2019-04-14T01:19:17.766Z,73.42
2019-04-14T01:21:48.105Z,72.90
2019-04-14T01:24:18.559Z,72.59
2019-04-14T01:26:48.520Z,72.58
2019-04-14T01:29:18.805Z,73.07
2019-04-14T01:31:49.370Z,72.77
2019-04-14T01:34:19.507Z,73.00
2019-04-14T01:36:49.683Z,73.22
2019-04-14T01:39:19.732Z,73.39
2019-04-14T01:41:49.986Z,73.23
2019-04-14T01:44:19.907Z,73.38
2019-04-14T01:46:49.880Z,73.22
2019-04-14T01:49:20.352Z,73.39
2019-04-14T01:52:08.181Z,73.28
2019-04-14T01:54:39.472Z,72.98
2019-04-14T01:57:11.053Z,72.56
2019-04-14T01:59:41.297Z,72.94
2019-04-14T02:02:12.555Z,72.97
2019-04-14T02:04:44.345Z,73.00
2019-04-14T02:07:14.495Z,72.87
2019-04-14T02:09:44.643Z,73.38
2019-04-14T02:12:14.876Z,73.09
2019-04-14T02:14:45.168Z,73.06
2019-04-14T02:17:15.379Z,72.80
2019-04-14T02:19:45.991Z,72.59
2019-04-14T02:22:15.973Z,72.71
2019-04-14T02:24:46.036Z,72.59
2019-04-14T02:27:16.625Z,72.16
2019-04-14T02:29:47.257Z,72.55
2019-04-14T02:32:43.323Z,72.24
2019-04-14T02:38:06.546Z,72.05
2019-04-14T02:40:20.831Z,72.30
2019-04-14T02:42:48.279Z,72.18
2019-04-14T02:50:41.705Z,72.63
2019-04-14T02:53:01.887Z,72.57
2019-04-14T02:55:23.698Z,72.32
2019-04-14T02:58:01.661Z,72.45
2019-04-14T03:00:35.562Z,72.59
2019-04-14T03:05:37.678Z,73.05
2019-04-14T03:08:11.268Z,73.43
2019-04-14T03:13:15.905Z,73.50
2019-04-14T03:15:43.211Z,73.78
2019-04-14T03:18:31.789Z,74.08
2019-04-14T03:21:19.773Z,74.07
2019-04-14T03:24:03.101Z,74.21
2019-04-14T03:26:44.733Z,74.63
2019-04-14T03:29:19.575Z,74.19
2019-04-14T03:32:02.267Z,73.93
2019-04-14T03:39:27.306Z,72.86
2019-04-14T03:41:56.842Z,72.87
2019-04-14T03:44:29.984Z,72.74
2019-04-14T03:47:03.370Z,72.52
2019-04-14T03:49:31.678Z,72.91
2019-04-14T03:52:15.626Z,72.85
2019-04-14T03:54:29.106Z,73.00
2019-04-14T03:56:55.479Z,72.57
2019-04-14T03:59:26.113Z,72.05
2019-04-14T04:01:56.619Z,72.21
2019-04-14T04:04:27.469Z,72.11
2019-04-14T04:06:57.496Z,71.86
2019-04-14T04:09:32.183Z,71.14
2019-04-14T04:12:03.008Z,71.48
2019-04-14T04:14:33.471Z,71.63
2019-04-14T04:17:10.554Z,71.80
2019-04-14T04:19:43.301Z,71.76
2019-04-14T04:22:25.849Z,71.27
2019-04-14T04:25:00.801Z,71.14
2019-04-14T04:27:33.067Z,71.40
2019-04-14T04:30:14.422Z,70.80
2019-04-14T04:32:51.574Z,71.59
2019-04-14T04:35:30.336Z,71.19
2019-04-14T04:38:13.816Z,71.66
2019-04-14T04:40:44.534Z,71.45
2019-04-14T04:43:14.703Z,71.49
2019-04-14T04:45:45.239Z,70.94
2019-04-14T04:48:15.210Z,70.78
2019-04-14T04:50:47.634Z,71.15
2019-04-14T04:53:18.093Z,71.01
2019-04-14T04:55:48.120Z,71.09
2019-04-14T04:58:17.764Z,71.23
2019-04-14T05:00:50.966Z,71.44
2019-04-14T05:03:19.018Z,71.02
2019-04-14T05:06:29.242Z,71.06
2019-04-14T05:09:01.482Z,71.13
2019-04-14T05:11:36.184Z,70.54
2019-04-14T05:14:08.679Z,71.08
2019-04-14T05:16:39.472Z,71.10
2019-04-14T05:19:17.312Z,70.83
2019-04-14T05:21:40.928Z,70.46
2019-04-14T05:24:11.435Z,70.65
2019-04-14T05:26:41.760Z,70.22
2019-04-14T05:29:12.357Z,70.33
2019-04-14T05:31:42.557Z,70.66
2019-04-14T05:34:12.905Z,70.61
2019-04-14T05:36:43.268Z,70.86
2019-04-14T05:39:13.593Z,70.18
2019-04-14T05:41:54.980Z,69.86
2019-04-14T05:44:14.487Z,70.32
2019-04-14T05:46:44.675Z,69.83
2019-04-14T05:49:26.281Z,69.76
2019-04-14T05:51:48.023Z,69.95
2019-04-14T05:54:18.546Z,69.80
2019-04-14T05:56:49.314Z,69.03
2019-04-14T05:59:19.841Z,69.61
2019-04-14T06:01:49.420Z,69.71
2019-04-14T06:04:19.944Z,69.30
2019-04-14T06:06:49.553Z,69.59
2019-04-14T06:09:19.118Z,69.16
2019-04-14T06:11:49.841Z,69.16
2019-04-14T06:14:19.399Z,68.75
2019-04-14T06:16:48.974Z,68.82
2019-04-14T06:19:18.574Z,68.46
2019-04-14T06:21:48.277Z,68.24
2019-04-14T06:24:17.837Z,68.18
2019-04-14T06:26:47.408Z,68.42
2019-04-14T06:29:16.987Z,68.44
2019-04-14T06:32:03.143Z,68.02
2019-04-14T06:34:34.356Z,67.24
2019-04-14T06:37:11.381Z,66.82
2019-04-14T06:39:54.712Z,66.57
2019-04-14T06:42:24.285Z,66.75
2019-04-14T06:44:53.853Z,66.50
2019-04-14T06:47:23.496Z,65.96
2019-04-14T06:49:53.066Z,65.75
2019-04-14T06:52:22.681Z,65.37
2019-04-14T06:54:53.764Z,65.51
2019-04-14T06:57:23.336Z,64.13
2019-04-14T06:59:54.541Z,62.83
2019-04-14T07:02:24.128Z,62.42
2019-04-14T07:04:53.707Z,61.57
2019-04-14T07:07:23.287Z,60.86
2019-04-14T07:09:52.870Z,60.07
2019-04-14T07:12:22.423Z,59.00
2019-04-14T07:14:51.979Z,59.88
2019-04-14T07:17:21.552Z,59.93
2019-04-14T07:20:01.233Z,59.17
2019-04-14T07:22:22.398Z,58.79
2019-04-14T07:24:51.989Z,57.76
2019-04-14T07:27:21.615Z,57.95
2019-04-14T07:29:58.552Z,56.89
2019-04-14T07:32:38.290Z,58.00
2019-04-14T07:35:12.515Z,56.74
2019-04-14T07:37:43.717Z,55.95
2019-04-14T07:40:15.094Z,55.90
2019-04-14T07:42:49.112Z,55.43
2019-04-14T07:45:20.893Z,55.99
2019-04-14T07:48:02.431Z,56.95
2019-04-14T07:50:46.974Z,56.51
2019-04-14T07:53:16.302Z,57.14
2019-04-14T07:56:07.297Z,55.73
2019-04-14T07:58:42.760Z,56.24
2019-04-14T08:01:13.969Z,56.15
2019-04-14T08:03:54.141Z,55.03
2019-04-14T08:06:23.805Z,57.05
2019-04-14T08:08:53.478Z,55.11
2019-04-14T08:11:23.035Z,54.88
2019-04-14T08:13:52.610Z,56.38
2019-04-14T08:16:22.244Z,55.64
2019-04-14T08:18:52.085Z,56.28
2019-04-14T08:21:21.660Z,54.66
2019-04-14T08:23:51.232Z,54.03
2019-04-14T08:26:20.797Z,54.00
2019-04-14T08:28:50.371Z,53.27
2019-04-14T08:31:19.933Z,54.78
2019-04-14T08:33:49.513Z,54.11
2019-04-14T08:36:19.067Z,53.18
2019-04-14T08:38:48.640Z,51.55
2019-04-14T08:41:18.201Z,51.63
2019-04-14T08:43:49.421Z,51.41
2019-04-14T08:46:23.181Z,51.33
2019-04-14T08:49:10.492Z,49.94
2019-04-14T08:51:44.410Z,50.49
2019-04-14T08:54:13.747Z,50.50
2019-04-14T08:56:44.955Z,49.96
2019-04-14T08:59:18.838Z,48.24
2019-04-14T09:02:06.196Z,48.24
2019-04-14T09:04:50.401Z,48.13
2019-04-14T09:07:30.422Z,47.18
2019-04-14T09:10:04.503Z,45.01
2019-04-14T09:12:35.731Z,43.30
2019-04-14T09:15:07.555Z,44.53
2019-04-14T09:17:37.100Z,42.59
2019-04-14T09:20:08.000Z,43.15
2019-04-14T09:22:37.574Z,43.50
2019-04-14T09:25:08.116Z,43.54
2019-04-14T09:27:37.684Z,43.53
2019-04-14T09:30:09.350Z,44.19
2019-04-14T09:32:38.937Z,42.30
2019-04-14T09:35:09.033Z,43.18
2019-04-14T09:37:38.609Z,43.31
2019-04-14T09:40:08.795Z,43.08
2019-04-14T09:42:38.366Z,44.36
2019-04-14T09:45:08.278Z,41.40
2019-04-14T09:47:37.867Z,41.95
2019-04-14T09:50:07.815Z,41.62
2019-04-14T09:52:37.387Z,41.15
2019-04-14T09:55:08.294Z,40.17
2019-04-14T09:57:37.860Z,40.32
2019-04-14T10:00:08.119Z,40.71
2019-04-14T10:02:37.702Z,38.68
2019-04-14T10:05:08.275Z,38.88
2019-04-14T10:07:37.863Z,39.24
2019-04-14T10:10:08.041Z,37.47
2019-04-14T10:12:37.737Z,36.36
2019-04-14T10:15:07.821Z,35.98
2019-04-14T10:17:37.404Z,37.54
2019-04-14T10:20:09.253Z,37.66
2019-04-14T10:22:38.835Z,35.68
2019-04-14T10:25:08.572Z,36.81
2019-04-14T10:27:38.229Z,34.71
2019-04-14T10:30:09.049Z,33.99
2019-04-14T10:32:38.638Z,35.66
2019-04-14T10:35:08.391Z,35.97
2019-04-14T10:37:37.987Z,35.27
2019-04-14T10:40:07.688Z,33.92
2019-04-14T10:42:37.287Z,34.43
2019-04-14T10:45:09.085Z,34.93
2019-04-14T10:47:38.954Z,34.86
2019-04-14T10:50:09.347Z,36.65
2019-04-14T10:52:38.998Z,35.91
2019-04-14T10:55:09.094Z,35.75
2019-04-14T10:57:38.683Z,36.56
2019-04-14T11:00:16.096Z,37.15
2019-04-14T11:02:45.707Z,36.69
2019-04-14T11:05:17.647Z,37.41
2019-04-14T11:07:48.837Z,35.43
2019-04-14T11:10:18.420Z,36.39
2019-04-14T11:12:48.588Z,35.26
2019-04-14T11:15:18.212Z,35.38
2019-04-14T11:17:52.343Z,35.18
2019-04-14T11:20:21.653Z,34.97
2019-04-14T11:23:02.672Z,34.87
2019-04-14T11:25:22.608Z,35.15
2019-04-14T11:27:52.190Z,35.49
2019-04-14T11:30:23.443Z,34.38
2019-04-14T11:33:03.404Z,34.66
2019-04-14T11:35:34.630Z,34.94
2019-04-14T11:38:11.673Z,34.53
2019-04-14T11:40:42.896Z,34.54
2019-04-14T11:43:12.582Z,33.51
2019-04-14T11:45:42.179Z,34.47
2019-04-14T11:48:11.883Z,33.27
2019-04-14T11:50:41.456Z,32.73
2019-04-14T11:53:11.060Z,32.48
2019-04-14T11:55:40.650Z,33.75
2019-04-14T11:58:10.282Z,33.17
2019-04-14T12:00:59.994Z,32.75
2019-04-14T12:03:42.743Z,32.96
2019-04-14T12:06:25.946Z,31.23
2019-04-14T12:08:59.968Z,31.09
2019-04-14T12:11:29.546Z,31.29
2019-04-14T12:13:59.122Z,31.71
2019-04-14T12:16:28.774Z,31.34
2019-04-14T12:18:58.365Z,32.33
2019-04-14T12:21:28.042Z,30.55
2019-04-14T12:23:57.617Z,30.88
2019-04-14T12:26:27.190Z,31.33
2019-04-14T12:28:56.776Z,31.72
2019-04-14T12:31:27.099Z,30.22
2019-04-14T12:33:56.736Z,30.81
2019-04-14T12:36:26.399Z,30.66
2019-04-14T12:38:56.056Z,30.08
2019-04-14T12:41:27.347Z,29.43
2019-04-14T12:44:04.020Z,29.26
2019-04-14T12:46:35.267Z,29.34
2019-04-14T12:49:09.240Z,30.08
2019-04-14T12:51:40.456Z,27.37
2019-04-14T12:54:10.026Z,29.23
2019-04-14T12:56:39.606Z,27.97
2019-04-14T12:59:08.946Z,28.81
2019-04-14T13:01:46.094Z,28.83
2019-04-14T13:04:15.664Z,27.95
2019-04-14T13:06:45.242Z,27.51
2019-04-14T13:09:14.814Z,28.32
2019-04-14T13:11:44.395Z,28.82
2019-04-14T13:14:13.969Z,28.97
2019-04-14T13:16:43.544Z,29.32
2019-04-14T13:19:13.120Z,29.15
2019-04-14T13:21:42.688Z,29.58
2019-04-14T13:24:12.270Z,28.82
2019-04-14T13:26:41.840Z,28.62
2019-04-14T13:29:14.447Z,27.99
2019-04-14T13:31:44.094Z,27.89
2019-04-14T13:34:15.264Z,29.02
2019-04-14T13:36:44.857Z,29.68
2019-04-14T13:39:14.486Z,27.42
2019-04-14T13:41:44.071Z,28.13
2019-04-14T13:44:13.635Z,27.63
2019-04-14T13:46:43.207Z,26.78
2019-04-14T13:49:13.918Z,26.93
2019-04-14T13:51:43.505Z,28.34
2019-04-14T13:54:13.107Z,26.98
2019-04-14T13:56:42.780Z,25.78
2019-04-14T13:59:12.348Z,25.92
2019-04-14T14:01:41.925Z,25.23
2019-04-14T14:04:11.500Z,26.02
2019-04-14T14:06:41.093Z,24.46
2019-04-14T14:09:11.608Z,22.71
2019-04-14T14:11:42.821Z,21.03
2019-04-14T14:14:22.806Z,20.64
2019-04-14T14:16:55.096Z,18.83
2019-04-14T14:19:41.123Z,20.45
2019-04-14T14:22:12.449Z,21.56
2019-04-14T14:24:43.657Z,22.14
2019-04-14T14:27:13.272Z,22.57
2019-04-14T14:29:42.861Z,23.47
2019-04-14T14:32:14.068Z,23.70
2019-04-14T14:34:43.651Z,23.08
2019-04-14T14:37:13.266Z,22.45
2019-04-14T14:39:42.817Z,23.07
2019-04-14T14:42:14.051Z,22.12
2019-04-14T14:44:54.298Z,23.05
2019-04-14T14:47:25.522Z,23.28
2019-04-14T14:50:05.507Z,23.69
2019-04-14T14:52:36.713Z,23.48
2019-04-14T14:55:07.645Z,22.82
2019-04-14T14:57:37.215Z,23.54
2019-04-14T15:00:10.536Z,24.04
2019-04-14T15:02:40.113Z,24.65
2019-04-14T15:05:09.674Z,23.76
2019-04-14T15:07:39.270Z,23.38
2019-04-14T15:10:08.912Z,24.13
2019-04-14T15:12:38.457Z,23.09
2019-04-14T15:15:08.374Z,24.73
2019-04-14T15:17:37.967Z,24.44
2019-04-14T15:20:07.803Z,23.42
2019-04-14T15:22:37.450Z,22.21
2019-04-14T15:25:07.427Z,21.03
2019-04-14T15:27:36.990Z,19.09
2019-04-14T15:30:10.261Z,18.88
2019-04-14T15:32:39.829Z,17.75
2019-04-14T15:35:09.544Z,19.86
2019-04-14T15:37:39.174Z,21.63
2019-04-14T15:40:09.370Z,20.19
2019-04-14T15:42:38.931Z,18.84
2019-04-14T15:45:10.549Z,20.22
2019-04-14T15:47:40.197Z,19.24
2019-04-14T15:50:10.476Z,21.67
2019-04-14T15:52:40.054Z,23.35
2019-04-14T15:55:10.300Z,23.18
2019-04-14T15:57:54.644Z,22.20
2019-04-14T16:00:32.064Z,18.42
2019-04-14T16:03:06.023Z,17.47
2019-04-14T16:05:38.499Z,18.67
2019-04-14T16:08:09.712Z,18.12
2019-04-14T16:10:41.565Z,20.30
2019-04-14T16:13:12.815Z,24.05
2019-04-14T16:15:53.128Z,26.26
2019-04-14T16:18:40.240Z,27.40
2019-04-14T16:21:09.798Z,27.64
2019-04-14T16:23:50.046Z,29.36
2019-04-14T16:26:12.317Z,32.18
2019-04-14T16:28:43.596Z,33.73
2019-04-14T16:31:15.893Z,35.54
2019-04-14T16:34:01.668Z,36.64
2019-04-14T16:36:31.319Z,37.69
2019-04-14T16:39:00.890Z,38.97
2019-04-14T16:41:30.479Z,38.22
2019-04-14T16:44:00.069Z,38.65
2019-04-14T16:46:29.648Z,38.04
2019-04-14T16:48:59.215Z,37.51
2019-04-14T16:51:45.156Z,37.14
2019-04-14T16:54:25.260Z,38.53
2019-04-14T16:56:56.483Z,38.39
2019-04-14T16:59:26.077Z,37.55
2019-04-14T17:01:55.638Z,38.15
2019-04-14T17:04:25.280Z,38.81
2019-04-14T17:06:54.864Z,38.86
2019-04-14T17:09:24.431Z,39.83
2019-04-14T17:11:54.072Z,40.43
2019-04-14T17:14:25.240Z,41.12
2019-04-14T17:17:02.664Z,41.35
2019-04-14T17:19:33.874Z,41.73
2019-04-14T17:22:05.102Z,42.59
2019-04-14T17:24:52.293Z,42.43
2019-04-14T17:27:23.530Z,41.78
2019-04-14T17:30:00.401Z,42.11
2019-04-14T17:32:47.753Z,42.92
2019-04-14T17:35:21.689Z,43.49
2019-04-14T17:37:52.899Z,44.97
2019-04-14T17:40:24.130Z,45.18
2019-04-14T17:42:55.335Z,44.74
2019-04-14T17:45:35.298Z,44.71
2019-04-14T17:48:04.775Z,44.99
2019-04-14T17:50:45.080Z,44.87
2019-04-14T17:53:25.033Z,44.62
2019-04-14T17:55:54.372Z,45.21
2019-04-14T17:58:25.598Z,45.74
2019-04-14T18:01:12.964Z,45.36
2019-04-14T18:03:44.166Z,45.89
2019-04-14T18:06:15.482Z,45.53
2019-04-14T18:09:02.608Z,46.01
2019-04-14T18:11:31.951Z,46.44
2019-04-14T18:14:05.937Z,46.40
2019-04-14T18:16:40.930Z,46.77
2019-04-14T18:19:16.282Z,46.76
2019-04-14T18:21:45.883Z,46.89
2019-04-14T18:24:15.432Z,47.07
2019-04-14T18:26:45.033Z,47.62
2019-04-14T18:29:23.340Z,48.03
2019-04-14T18:31:54.550Z,48.16
2019-04-14T18:34:29.593Z,47.96
2019-04-14T18:37:00.782Z,47.83
2019-04-14T18:39:38.221Z,48.00
2019-04-14T18:42:30.298Z,48.25
2019-04-14T18:45:05.132Z,48.62
2019-04-14T18:47:48.080Z,48.85
2019-04-14T18:50:22.019Z,49.08
2019-04-14T18:52:55.629Z,48.96
2019-04-14T18:55:38.833Z,49.01
2019-04-14T18:58:10.114Z,49.60
2019-04-14T19:00:50.089Z,49.47
2019-04-14T19:03:19.660Z,49.77
2019-04-14T19:05:49.306Z,50.07
2019-04-14T19:08:19.995Z,49.64
2019-04-14T19:11:07.515Z,49.77
2019-04-14T19:13:38.449Z,49.87
2019-04-14T19:16:38.150Z,49.91
2019-04-14T19:19:04.044Z,50.33
2019-04-14T19:21:33.609Z,50.22
2019-04-14T19:24:03.161Z,50.39
2019-04-14T19:26:32.821Z,50.17
2019-04-14T19:29:02.432Z,50.09
2019-04-14T19:31:32.123Z,49.85
2019-04-14T19:34:01.716Z,50.29
2019-04-14T19:36:31.372Z,50.92
2019-04-14T19:39:00.909Z,50.83
2019-04-14T19:41:30.476Z,50.74
2019-04-14T19:44:00.054Z,51.25
2019-04-14T19:46:29.605Z,51.20
2019-04-14T19:48:59.167Z,51.17
2019-04-14T19:51:28.748Z,51.64
2019-04-14T19:53:58.365Z,51.88
2019-04-14T19:56:27.944Z,52.00
2019-04-14T19:58:57.500Z,52.07
2019-04-14T20:01:27.078Z,51.75
2019-04-14T20:03:56.636Z,52.45
2019-04-14T20:06:26.215Z,52.29
2019-04-14T20:08:56.172Z,52.12
2019-04-14T20:11:25.759Z,51.61
2019-04-14T20:13:55.305Z,51.96
2019-04-14T20:16:42.690Z,51.34
2019-04-14T20:19:17.000Z,51.97
2019-04-14T20:21:48.205Z,52.23
2019-04-14T20:24:25.353Z,52.86
2019-04-14T20:27:05.459Z,53.13
2019-04-14T20:29:48.886Z,53.20
2019-04-14T20:32:22.626Z,53.18
2019-04-14T20:34:52.178Z,53.29
2019-04-14T20:37:21.757Z,53.08
2019-04-14T20:39:52.425Z,53.01
2019-04-14T20:42:22.047Z,52.82
2019-04-14T20:44:53.216Z,52.93
2019-04-14T20:47:22.753Z,52.60
2019-04-14T20:49:55.292Z,52.99
2019-04-14T20:52:24.788Z,53.36
2019-04-14T20:54:54.364Z,53.72
2019-04-14T20:57:23.913Z,53.65
2019-04-14T20:59:53.601Z,53.37
2019-04-14T21:02:31.051Z,53.58
2019-04-14T21:05:00.419Z,53.76
2019-04-14T21:07:32.147Z,54.15
2019-04-14T21:10:04.277Z,54.08
2019-04-14T21:12:41.336Z,53.99
2019-04-14T21:15:15.184Z,54.04
2019-04-14T21:17:46.394Z,53.99
2019-04-14T21:20:20.288Z,54.25
2019-04-14T21:23:06.439Z,54.34
2019-04-14T21:25:43.254Z,54.01
2019-04-14T21:28:26.131Z,53.00
2019-04-14T21:31:04.220Z,53.90
2019-04-14T21:33:33.562Z,54.04
2019-04-14T21:36:04.741Z,53.66
2019-04-14T21:38:42.811Z,53.96
2019-04-14T21:41:15.541Z,53.92
2019-04-14T21:43:45.110Z,54.11
2019-04-14T21:46:14.697Z,54.67
2019-04-14T21:48:44.290Z,55.08
2019-04-14T21:51:14.003Z,54.99
2019-04-14T21:53:44.195Z,55.09
2019-04-14T21:56:13.999Z,54.77
2019-04-14T21:58:48.319Z,55.30
2019-04-14T22:01:40.156Z,55.05
2019-04-14T22:04:15.740Z,55.35
2019-04-14T22:06:49.741Z,55.35
2019-04-14T22:09:23.375Z,55.23
2019-04-14T22:11:52.940Z,55.40
2019-04-14T22:14:22.499Z,55.58
2019-04-14T22:16:52.095Z,55.73
2019-04-14T22:19:21.769Z,55.66
2019-04-14T22:21:51.333Z,55.61
2019-04-14T22:24:20.929Z,55.81
2019-04-14T22:26:50.557Z,55.38
2019-04-14T22:29:21.335Z,55.21
2019-04-14T22:31:50.997Z,55.34
2019-04-14T22:34:20.604Z,54.89
2019-04-14T22:36:50.175Z,53.91
2019-04-14T22:39:21.356Z,54.43
2019-04-14T22:41:50.912Z,54.90
2019-04-14T22:44:22.219Z,55.17
2019-04-14T22:46:51.803Z,54.47
2019-04-14T22:49:23.021Z,54.61
2019-04-14T22:51:52.588Z,54.94
2019-04-14T22:54:23.711Z,54.09
2019-04-14T22:56:53.377Z,53.95
2019-04-14T22:59:22.926Z,55.17
2019-04-14T23:01:54.205Z,55.59
2019-04-14T23:04:25.405Z,55.99
2019-04-14T23:07:05.741Z,54.93
2019-04-14T23:09:36.979Z,54.53
2019-04-14T23:12:08.929Z,56.14
2019-04-14T23:14:56.396Z,56.48
2019-04-14T23:17:27.675Z,56.72
2019-04-14T23:19:58.862Z,56.96
2019-04-14T23:29:52.550Z,58.60
2019-04-14T23:32:22.495Z,58.12
2019-04-14T23:34:52.042Z,58.44
2019-04-14T23:37:21.654Z,58.37
2019-04-14T23:39:51.239Z,58.17
2019-04-14T23:42:20.807Z,58.44
2019-04-14T23:44:50.377Z,58.70
2019-04-14T23:47:19.932Z,59.00
2019-04-14T23:49:49.617Z,59.25
2019-04-14T23:52:19.200Z,59.43
2019-04-14T23:54:50.325Z,59.16
2019-04-14T23:57:19.879Z,58.26
2019-04-14T23:59:49.434Z,58.94
